Time;durP1;ratioP1;P1;durP2;ratioP2;P2;SDS_P1;SDS_P2;PMS_P1;PMS_P2;Temp;Humidity;BMP_temperature;BMP_pressure;BME280_temperature;BME280_humidity;BME280_pressure;Samples;Min_cycle;Max_cycle;Signal;HPM_P1;HPM_P2
2023/05/12 00:02:24;;;;;;;;;;;;;;;12.53;99.57;101581.31;5051398;28;20012;-81
2023/05/12 00:04:50;;;;;;;;;;;;;;;12.52;99.71;101577.78;5054671;28;20011;-80
2023/05/12 00:07:15;;;;;;;;;;;;;;;12.50;99.78;101576.94;5052627;28;19981;-80
2023/05/12 00:09:41;;;;;;;;;;;;;;;12.47;99.99;101580.50;5043254;28;19988;-80
2023/05/12 00:12:07;;;;;;;;;;;;;;;12.47;99.88;101577.00;5042395;28;19917;-80
2023/05/12 00:14:34;;;;;;;;;;;;;;;12.47;99.91;101580.50;5051534;28;19978;-80
2023/05/12 00:16:59;;;;;;;;;;;;;;;12.48;100.00;101579.59;5054404;28;20033;-80
2023/05/12 00:19:25;;;;;;;;;;;;;;;12.44;99.34;101583.25;5046915;28;20054;-80
2023/05/12 00:21:50;;;;;;;;;;;;;;;12.40;100.00;101575.34;5052416;28;19921;-80
2023/05/12 00:24:15;;;;;;;;;;;;;;;12.35;99.72;101574.56;5054739;28;19916;-80
2023/05/12 00:26:41;;;;;;;;;;;;;;;12.32;99.91;101575.47;5054564;28;20338;-80
2023/05/12 00:29:06;;;;;;;;;;;;;;;12.29;99.31;101571.97;5054036;28;20299;-80
2023/05/12 00:31:31;;;;;;;;;;;;;;;12.25;99.59;101569.38;5049690;28;20019;-80
2023/05/12 00:33:57;;;;;;;;;;;;;;;12.23;99.68;101568.53;5062284;28;20398;-80
2023/05/12 00:36:22;;;;;;;;;;;;;;;12.20;99.79;101563.28;5054030;28;19960;-80
2023/05/12 00:38:48;;;;;;;;;;;;;;;12.20;99.23;101567.72;5048977;28;19917;-80
2023/05/12 00:41:13;;;;;;;;;;;;;;;12.17;99.51;101568.66;5052621;28;19966;-81
2023/05/12 00:43:38;;;;;;;;;;;;;;;12.15;99.09;101569.59;5034830;28;19920;-80
2023/05/12 00:46:05;;;;;;;;;;;;;;;12.12;99.51;101569.66;5050318;28;21688;-80
2023/05/12 00:48:31;;;;;;;;;;;;;;;12.10;99.74;101568.78;5049644;28;19921;-81
2023/05/12 00:50:57;;;;;;;;;;;;;;;12.07;100.00;101560.84;5034536;28;19917;-80
2023/05/12 00:53:23;;;;;;;;;;;;;;;12.06;99.74;101565.28;5019604;28;19944;-81
2023/05/12 00:55:48;;;;;;;;;;;;;;;12.04;100.00;101564.44;5053838;28;19987;-80
2023/05/12 00:58:15;;;;;;;;;;;;;;;12.03;99.52;101562.69;5052761;28;19916;-81
2023/05/12 01:00:40;;;;;;;;;;;;;;;12.01;100.00;101557.38;5054001;28;19913;-81
2023/05/12 01:03:06;;;;;;;;;;;;;;;12.01;99.43;101552.09;5052676;28;19971;-81
2023/05/12 01:05:41;;;;;;;;;;;;;;;12.00;100.00;101554.78;5049191;28;19928;-81
2023/05/12 01:08:08;;;;;;;;;;;;;;;11.95;100.00;101560.16;5051642;28;19940;-81
2023/05/12 01:10:33;;;;;;;;;;;;;;;11.91;100.00;101558.44;5050733;28;19920;-81
2023/05/12 01:12:59;;;;;;;;;;;;;;;11.89;100.00;101552.28;5068924;28;19917;-81
2023/05/12 01:15:24;;;;;;;;;;;;;;;11.90;100.00;101556.72;5068892;28;20264;-81
2023/05/12 01:17:58;;;;;;;;;;;;;;;11.91;100.00;101546.97;5068859;28;20431;-81
2023/05/12 01:20:25;;;;;;;;;;;;;;;11.88;100.00;101544.38;5048146;28;19927;-81
2023/05/12 01:22:51;;;;;;;;;;;;;;;11.88;100.00;101544.38;5035366;28;20000;-81
2023/05/12 01:25:18;;;;;;;;;;;;;;;11.87;100.00;101545.25;5051485;28;20305;-81
2023/05/12 01:27:44;;;;;;;;;;;;;;;11.83;100.00;101544.41;5052017;28;20281;-81
2023/05/12 01:30:11;;;;;;;;;;;;;;;11.80;100.00;101545.31;5036672;28;19927;-81
2023/05/12 01:32:37;;;;;;;;;;;;;;;11.78;100.00;101535.63;5044175;28;20000;-81
2023/05/12 01:35:04;;;;;;;;;;;;;;;11.74;100.00;101541.88;5049490;28;19955;-81
2023/05/12 01:37:31;;;;;;;;;;;;;;;11.71;100.00;101536.63;5035264;28;19960;-80
2023/05/12 01:39:58;;;;;;;;;;;;;;;11.72;100.00;101536.63;5051056;28;19928;-81
2023/05/12 01:42:24;;;;;;;;;;;;;;;11.70;100.00;101537.53;5037150;28;20320;-80
2023/05/12 01:44:50;;;;;;;;;;;;;;;11.68;100.00;101536.69;5051590;28;20565;-80
2023/05/12 01:47:16;;;;;;;;;;;;;;;11.67;100.00;101533.16;5039865;28;20009;-80
2023/05/12 01:49:47;;;;;;;;;;;;;;;11.67;100.00;101537.56;5044942;28;19931;-81
2023/05/12 01:52:15;;;;;;;;;;;;;;;11.65;100.00;101534.06;5049337;28;20278;-81
2023/05/12 01:54:40;;;;;;;;;;;;;;;11.61;100.00;101539.41;5051581;28;20004;-81
2023/05/12 01:57:06;;;;;;;;;;;;;;;11.59;100.00;101538.56;5040784;28;20020;-81
2023/05/12 01:59:34;;;;;;;;;;;;;;;11.58;100.00;101531.50;5046966;28;19917;-81
2023/05/12 02:02:01;;;;;;;;;;;;;;;11.56;100.00;101530.66;5048071;28;19971;-80
2023/05/12 02:04:29;;;;;;;;;;;;;;;11.55;100.00;101528.03;5051501;28;19921;-80
2023/05/12 02:06:56;;;;;;;;;;;;;;;11.53;100.00;101524.53;5050999;28;19925;-80
2023/05/12 02:09:21;;;;;;;;;;;;;;;11.51;100.00;101526.31;5047328;28;19925;-80
2023/05/12 02:11:48;;;;;;;;;;;;;;;11.47;100.00;101520.16;5066088;28;19963;-79
2023/05/12 02:14:13;;;;;;;;;;;;;;;11.47;100.00;101520.16;5048748;28;19964;-79
2023/05/12 02:16:39;;;;;;;;;;;;;;;11.47;100.00;101524.59;5032779;28;20015;-79
2023/05/12 02:19:05;;;;;;;;;;;;;;;11.47;100.00;101514.00;5052216;28;19940;-80
2023/05/12 02:21:31;;;;;;;;;;;;;;;11.47;100.00;101514.00;5034113;28;20011;-80
2023/05/12 02:23:57;;;;;;;;;;;;;;;11.46;100.00;101517.56;5065742;28;19955;-80
2023/05/12 02:26:22;;;;;;;;;;;;;;;11.46;100.00;101513.13;5043051;28;19965;-80
2023/05/12 02:28:48;;;;;;;;;;;;;;;11.44;100.00;101514.03;5065635;28;19932;-80
2023/05/12 02:31:14;;;;;;;;;;;;;;;11.44;100.00;101514.03;5048667;28;19932;-80
2023/05/12 02:33:39;;;;;;;;;;;;;;;11.43;100.00;101507.00;5040889;28;19928;-80
2023/05/12 02:36:05;;;;;;;;;;;;;;;11.43;100.00;101494.63;5050782;28;19917;-81
2023/05/12 02:38:30;;;;;;;;;;;;;;;11.41;100.00;101497.28;5044831;28;20364;-81
2023/05/12 02:40:55;;;;;;;;;;;;;;;11.38;100.00;101502.63;5047502;28;19924;-80
2023/05/12 02:43:22;;;;;;;;;;;;;;;11.37;100.00;101507.94;5043419;28;20300;-80
2023/05/12 02:45:47;;;;;;;;;;;;;;;11.33;100.00;101501.81;5040567;28;19967;-80
2023/05/12 02:48:13;;;;;;;;;;;;;;;11.32;100.00;101499.19;5023773;28;19925;-80
2023/05/12 02:50:38;;;;;;;;;;;;;;;11.30;100.00;101496.56;5038269;28;19921;-80
2023/05/12 02:53:03;;;;;;;;;;;;;;;11.28;100.00;101494.84;5026488;28;19931;-81
2023/05/12 02:55:29;;;;;;;;;;;;;;;11.28;100.00;101487.75;5045978;28;19961;-81
2023/05/12 02:57:54;;;;;;;;;;;;;;;11.26;100.00;101486.03;5033405;28;19974;-81
2023/05/12 03:00:20;;;;;;;;;;;;;;;11.24;100.00;101483.38;5047273;28;19979;-81
2023/05/12 03:02:45;;;;;;;;;;;;;;;11.24;100.00;101490.47;5049797;28;19917;-81
2023/05/12 03:05:11;;;;;;;;;;;;;;;11.24;100.00;101480.72;5051515;28;19928;-81
2023/05/12 03:07:36;;;;;;;;;;;;;;;11.25;100.00;101479.84;5064561;28;19920;-81
2023/05/12 03:10:02;;;;;;;;;;;;;;;11.24;100.00;101479.88;5055921;28;20335;-81
2023/05/12 03:12:29;;;;;;;;;;;;;;;11.23;100.00;101472.81;5047766;28;19921;-81
2023/05/12 03:14:55;;;;;;;;;;;;;;;11.22;100.00;101468.41;5027592;28;19966;-81
2023/05/12 03:17:21;;;;;;;;;;;;;;;11.23;100.00;101480.78;5046135;28;20015;-80
2023/05/12 03:19:47;;;;;;;;;;;;;;;11.19;100.00;101470.19;5029944;28;20075;-81
2023/05/12 03:22:15;;;;;;;;;;;;;;;11.17;100.00;101476.41;5050126;28;19956;-80
2023/05/12 03:24:41;;;;;;;;;;;;;;;11.16;100.00;101474.69;5049534;28;19921;-80
2023/05/12 03:27:06;;;;;;;;;;;;;;;11.16;100.00;101472.03;5033131;28;20330;-80
2023/05/12 03:29:32;;;;;;;;;;;;;;;11.16;100.00;101470.25;5048003;28;19921;-81
2023/05/12 03:31:57;;;;;;;;;;;;;;;11.17;100.00;101468.47;5032798;28;20016;-80
2023/05/12 03:34:23;;;;;;;;;;;;;;;11.17;100.00;101465.81;5040746;28;19921;-81
2023/05/12 03:36:48;;;;;;;;;;;;;;;11.17;100.00;101460.50;5050116;28;19927;-81
2023/05/12 03:39:14;;;;;;;;;;;;;;;11.16;100.00;101469.38;5047726;28;19940;-80
2023/05/12 03:41:40;;;;;;;;;;;;;;;11.15;100.00;101467.59;5045845;28;19974;-81
2023/05/12 03:44:07;;;;;;;;;;;;;;;11.12;100.00;101452.63;5068202;28;19984;-81
2023/05/12 03:46:33;;;;;;;;;;;;;;;11.12;100.00;101460.56;5036706;28;19921;-81
2023/05/12 03:48:58;;;;;;;;;;;;;;;11.13;100.00;101464.13;5038503;28;19929;-81
2023/05/12 03:51:24;;;;;;;;;;;;;;;11.12;100.00;101463.22;5049157;28;19924;-81
2023/05/12 03:53:50;;;;;;;;;;;;;;;11.10;100.00;101456.19;5044889;28;19917;-80
2023/05/12 03:56:16;;;;;;;;;;;;;;;11.11;100.00;101450.88;5050256;28;19956;-81
2023/05/12 03:58:41;;;;;;;;;;;;;;;11.11;100.00;101456.19;5046889;28;20362;-80
2023/05/12 04:01:07;;;;;;;;;;;;;;;11.14;100.00;101460.56;5048218;28;19952;-80
2023/05/12 04:03:32;;;;;;;;;;;;;;;11.13;100.00;101456.16;5032877;28;19956;-81
2023/05/12 04:05:58;;;;;;;;;;;;;;;11.10;100.00;101456.19;5051622;28;19917;-81
2023/05/12 04:08:24;;;;;;;;;;;;;;;11.10;100.00;101450.88;5048920;28;19933;-80
2023/05/12 04:10:49;;;;;;;;;;;;;;;11.10;100.00;101456.19;5051360;28;19921;-80
2023/05/12 04:13:14;;;;;;;;;;;;;;;11.10;100.00;101450.88;5052026;28;19916;-81
2023/05/12 04:15:40;;;;;;;;;;;;;;;11.09;100.00;101455.31;5052864;28;20260;-80
2023/05/12 04:18:06;;;;;;;;;;;;;;;11.10;100.00;101454.44;5050468;28;19920;-81
2023/05/12 04:20:31;;;;;;;;;;;;;;;11.09;100.00;101450.03;5047213;28;20287;-80
2023/05/12 04:22:57;;;;;;;;;;;;;;;11.10;100.00;101451.78;5051658;28;19921;-80
2023/05/12 04:25:23;;;;;;;;;;;;;;;11.10;100.00;101458.84;5059990;28;19979;-80
2023/05/12 04:27:48;;;;;;;;;;;;;;;11.11;100.00;101450.00;5047486;28;19968;-80
2023/05/12 04:30:15;;;;;;;;;;;;;;;11.13;100.00;101458.81;5049416;28;20020;-80
2023/05/12 04:32:41;;;;;;;;;;;;;;;11.13;100.00;101464.13;5048834;28;19921;-81
2023/05/12 04:35:07;;;;;;;;;;;;;;;11.13;100.00;101453.53;5049184;28;20375;-81
2023/05/12 04:37:33;;;;;;;;;;;;;;;11.11;100.00;101445.56;5049395;28;19982;-81
2023/05/12 04:39:58;;;;;;;;;;;;;;;11.10;100.00;101457.09;5050297;28;19924;-80
2023/05/12 04:42:24;;;;;;;;;;;;;;;11.10;100.00;101454.44;5034850;28;19917;-81
2023/05/12 04:44:50;;;;;;;;;;;;;;;11.08;100.00;101461.53;5036368;28;19975;-80
2023/05/12 04:47:15;;;;;;;;;;;;;;;11.07;100.00;101458.91;5048993;28;19917;-80
2023/05/12 04:49:41;;;;;;;;;;;;;;;11.07;100.00;101462.41;5053542;28;20015;-81
2023/05/12 04:52:06;;;;;;;;;;;;;;;11.08;100.00;101461.53;5046758;28;19936;-80
2023/05/12 04:54:32;;;;;;;;;;;;;;;11.10;100.00;101459.75;5051992;28;19943;-81
2023/05/12 04:56:57;;;;;;;;;;;;;;;11.12;100.00;101463.22;5053159;28;19935;-80
2023/05/12 04:59:23;;;;;;;;;;;;;;;11.15;100.00;101463.19;5051799;28;20311;-80
2023/05/12 05:01:50;;;;;;;;;;;;;;;11.18;100.00;101465.81;5033412;28;19910;-80
2023/05/12 05:04:16;;;;;;;;;;;;;;;11.20;100.00;101468.41;5049465;28;19923;-80
2023/05/12 05:06:41;;;;;;;;;;;;;;;11.22;100.00;101474.56;5049655;28;19919;-80
2023/05/12 05:09:07;;;;;;;;;;;;;;;11.25;100.00;101468.34;5049082;28;20304;-80
2023/05/12 05:11:33;;;;;;;;;;;;;;;11.28;100.00;101473.63;5045538;28;19919;-80
2023/05/12 05:13:58;;;;;;;;;;;;;;;11.30;100.00;101482.41;5047605;28;19921;-80
2023/05/12 05:16:24;;;;;;;;;;;;;;;11.30;100.00;101478.00;5025714;28;19925;-80
2023/05/12 05:18:50;;;;;;;;;;;;;;;11.32;100.00;101472.66;5037412;28;19976;-80
2023/05/12 05:21:15;;;;;;;;;;;;;;;11.34;100.00;101479.69;5046636;28;19952;-80
2023/05/12 05:23:41;;;;;;;;;;;;;;;11.38;100.00;101477.91;5052007;28;19974;-81
2023/05/12 05:26:07;;;;;;;;;;;;;;;11.41;100.00;101477.84;5048305;28;20035;-80
2023/05/12 05:28:33;;;;;;;;;;;;;;;11.44;100.00;101484.88;5050924;28;19928;-80
2023/05/12 05:30:59;;;;;;;;;;;;;;;11.46;100.00;101483.94;5051763;28;19920;-80
2023/05/12 05:33:24;;;;;;;;;;;;;;;11.49;100.00;101493.63;5037156;28;19928;-80
2023/05/12 05:35:50;;;;;;;;;;;;;;;11.52;100.00;101493.56;5042763;28;20386;-80
2023/05/12 05:38:15;;;;;;;;;;;;;;;11.54;100.00;101497.09;5048843;28;19917;-80
2023/05/12 05:40:41;;;;;;;;;;;;;;;11.56;100.00;101497.94;5047354;28;20020;-80
2023/05/12 05:43:06;;;;;;;;;;;;;;;11.59;100.00;101498.75;5025571;28;19921;-80
2023/05/12 05:45:32;;;;;;;;;;;;;;;11.62;100.00;101504.03;5050956;28;19920;-80
2023/05/12 05:47:57;;;;;;;;;;;;;;;11.66;100.00;101506.63;5050618;28;19923;-80
2023/05/12 05:50:23;;;;;;;;;;;;;;;11.69;100.00;101504.81;5034288;28;20000;-80
2023/05/12 05:52:50;;;;;;;;;;;;;;;11.72;100.00;101512.75;5041869;28;19917;-80
2023/05/12 05:55:15;;;;;;;;;;;;;;;11.75;100.00;101515.34;5050733;28;19971;-80
2023/05/12 05:57:41;;;;;;;;;;;;;;;11.79;100.00;101516.16;5044959;28;19917;-79
2023/05/12 06:00:08;;;;;;;;;;;;;;;11.83;100.00;101515.22;5044564;28;20356;-80
2023/05/12 06:02:40;;;;;;;;;;;;;;;11.90;100.00;101516.91;5048227;28;20240;-80
2023/05/12 06:05:06;;;;;;;;;;;;;;;11.97;100.00;101520.34;5018179;28;19928;-80
2023/05/12 06:07:32;;;;;;;;;;;;;;;12.09;100.00;101524.53;5031263;28;19917;-80
2023/05/12 06:09:57;;;;;;;;;;;;;;;12.21;100.00;101532.28;5051846;28;19921;-80
2023/05/12 06:12:23;;;;;;;;;;;;;;;12.33;100.00;101528.53;5034495;28;19924;-80
2023/05/12 06:14:48;;;;;;;;;;;;;;;12.46;100.00;101527.41;5052333;28;20260;-80
2023/05/12 06:17:13;;;;;;;;;;;;;;;12.58;100.00;101537.78;5051444;28;19921;-80
2023/05/12 06:19:39;;;;;;;;;;;;;;;12.72;100.00;101536.69;5031391;28;19980;-80
2023/05/12 06:22:04;;;;;;;;;;;;;;;12.84;100.00;101539.97;5045275;28;19927;-79
2023/05/12 06:24:30;;;;;;;;;;;;;;;12.94;100.00;101543.31;5034785;28;20107;-80
2023/05/12 06:26:55;;;;;;;;;;;;;;;13.04;100.00;101546.66;5007152;28;19925;-80
2023/05/12 06:29:22;;;;;;;;;;;;;;;13.13;100.00;101549.13;5045219;28;19921;-80
2023/05/12 06:31:48;;;;;;;;;;;;;;;13.22;100.00;101550.69;5050662;28;19920;-80
2023/05/12 06:34:14;;;;;;;;;;;;;;;13.27;100.00;101555.03;5050758;28;19932;-80
2023/05/12 06:36:39;;;;;;;;;;;;;;;13.31;100.00;101558.53;5045165;28;19921;-80
2023/05/12 06:39:05;;;;;;;;;;;;;;;13.33;100.00;101559.38;5046481;28;20275;-81
2023/05/12 06:41:32;;;;;;;;;;;;;;;13.36;100.00;101559.31;5047266;28;19944;-81
2023/05/12 06:44:00;;;;;;;;;;;;;;;13.40;100.00;101562.75;5040465;28;19924;-80
2023/05/12 06:46:26;;;;;;;;;;;;;;;13.45;100.00;101552.88;5047462;28;19913;-80
2023/05/12 06:48:54;;;;;;;;;;;;;;;13.47;100.00;101557.25;5033816;28;19931;-80
2023/05/12 06:51:20;;;;;;;;;;;;;;;13.52;100.00;101570.47;5049746;28;20000;-80
2023/05/12 06:53:45;;;;;;;;;;;;;;;13.60;100.00;101565.88;5051844;28;20020;-81
2023/05/12 06:56:15;;;;;;;;;;;;;;;13.68;100.00;101571.00;5050579;28;20334;-80
2023/05/12 06:58:41;;;;;;;;;;;;;;;13.75;100.00;101569.97;5051572;28;19944;-80
2023/05/12 07:01:06;;;;;;;;;;;;;;;13.80;100.00;101573.38;5051722;28;20360;-80
2023/05/12 07:03:32;;;;;;;;;;;;;;;13.84;100.00;101571.50;5039677;28;20292;-80
2023/05/12 07:05:57;;;;;;;;;;;;;;;13.90;100.00;101580.25;5048326;28;20251;-81
2023/05/12 07:08:23;;;;;;;;;;;;;;;13.97;100.00;101578.28;5051832;28;19932;-80
2023/05/12 07:10:48;;;;;;;;;;;;;;;14.03;100.00;101579.94;5050742;28;19913;-81
2023/05/12 07:13:13;;;;;;;;;;;;;;;14.03;100.00;101586.13;5051770;28;19928;-80
2023/05/12 07:15:39;;;;;;;;;;;;;;;14.09;100.00;101591.31;5051561;28;19921;-80
2023/05/12 07:18:04;;;;;;;;;;;;;;;14.13;100.00;101585.00;5051699;28;19917;-81
2023/05/12 07:20:30;;;;;;;;;;;;;;;14.20;100.00;101591.94;5047240;28;19920;-81
2023/05/12 07:22:55;;;;;;;;;;;;;;;14.24;100.00;101592.72;5050321;28;19982;-82
2023/05/12 07:25:21;;;;;;;;;;;;;;;14.30;100.00;101597.03;5051664;28;19928;-81
2023/05/12 07:27:46;;;;;;;;;;;;;;;14.30;100.00;101589.91;5050138;28;19971;-81
2023/05/12 07:30:12;;;;;;;;;;;;;;;14.33;100.00;101584.50;5050867;28;20291;-81
2023/05/12 07:32:37;;;;;;;;;;;;;;;14.41;100.00;101579.88;5054051;28;19924;-81
2023/05/12 07:35:02;;;;;;;;;;;;;;;14.57;100.00;101584.81;5059580;28;19913;-81
2023/05/12 07:37:28;;;;;;;;;;;;;;;14.74;100.00;101584.38;5043326;28;19925;-82
2023/05/12 07:39:54;;;;;;;;;;;;;;;14.80;100.00;101593.06;5047392;28;19924;-82
2023/05/12 07:42:19;;;;;;;;;;;;;;;14.88;100.00;101597.31;5052456;28;19925;-81
2023/05/12 07:44:44;;;;;;;;;;;;;;;14.94;100.00;101602.47;5052809;28;19917;-80
2023/05/12 07:47:10;;;;;;;;;;;;;;;14.98;99.44;101599.66;5055097;28;20287;-82
2023/05/12 07:49:35;;;;;;;;;;;;;;;15.02;100.00;101598.66;5037231;28;20019;-82
2023/05/12 07:52:00;;;;;;;;;;;;;;;15.14;100.00;101609.91;5053235;28;19920;-82
2023/05/12 07:54:26;;;;;;;;;;;;;;;15.19;99.86;101605.31;5041331;28;19917;-82
2023/05/12 07:56:51;;;;;;;;;;;;;;;15.24;99.09;101608.72;5041605;28;20431;-82
2023/05/12 07:59:16;;;;;;;;;;;;;;;15.36;99.18;101602.16;5053508;28;20007;-81
2023/05/12 08:01:42;;;;;;;;;;;;;;;15.46;98.71;101601.84;5054989;28;19920;-81
2023/05/12 08:04:07;;;;;;;;;;;;;;;15.54;96.10;101612.28;5015639;28;19935;-82
2023/05/12 08:06:33;;;;;;;;;;;;;;;15.56;95.99;101609.56;5054904;28;19986;-82
2023/05/12 08:08:58;;;;;;;;;;;;;;;15.61;95.48;101611.19;5047858;28;20379;-81
2023/05/12 08:11:24;;;;;;;;;;;;;;;15.61;94.50;101607.63;5045671;28;20011;-81
2023/05/12 08:13:50;;;;;;;;;;;;;;;15.62;95.90;101607.56;5046060;28;20360;-81
2023/05/12 08:16:15;;;;;;;;;;;;;;;15.80;95.09;101611.53;5046321;28;19924;-81
2023/05/12 08:18:41;;;;;;;;;;;;;;;16.01;95.00;101619.78;5053448;28;19959;-81
2023/05/12 08:21:06;;;;;;;;;;;;;;;16.10;93.59;101611.47;5043777;28;19925;-81
2023/05/12 08:23:31;;;;;;;;;;;;;;;16.15;93.86;101611.28;5052246;28;19947;-81
2023/05/12 08:25:57;;;;;;;;;;;;;;;16.28;93.59;101623.34;5040704;28;19920;-80
2023/05/12 08:28:22;;;;;;;;;;;;;;;16.41;93.54;101622.00;5046891;28;19921;-81
2023/05/12 08:30:48;;;;;;;;;;;;;;;16.44;90.09;101631.72;5045602;28;19960;-82
2023/05/12 08:33:13;;;;;;;;;;;;;;;16.43;90.59;101632.66;5042919;28;19916;-82
2023/05/12 08:35:39;;;;;;;;;;;;;;;16.54;92.74;101628.69;5037290;28;19917;-81
2023/05/12 08:38:04;;;;;;;;;;;;;;;16.68;88.99;101635.34;5051025;28;19921;-81
2023/05/12 08:40:32;;;;;;;;;;;;;;;16.68;90.03;101621.97;5043361;28;19917;-81
2023/05/12 08:43:06;;;;;;;;;;;;;;;16.82;87.41;101632.25;5040628;28;20195;-81
2023/05/12 08:45:34;;;;;;;;;;;;;;;16.84;88.28;101635.72;5037775;28;19924;-81
2023/05/12 08:48:01;;;;;;;;;;;;;;;16.81;87.42;101638.50;5045479;28;19971;-81
2023/05/12 08:50:28;;;;;;;;;;;;;;;16.82;86.95;101643.81;5052558;28;20007;-81
2023/05/12 08:52:54;;;;;;;;;;;;;;;16.91;87.93;101639.91;5004780;28;19925;-80
2023/05/12 08:55:20;;;;;;;;;;;;;;;17.04;88.43;101651.94;5031015;28;19954;-81
2023/05/12 08:57:47;;;;;;;;;;;;;;;17.07;85.85;101641.13;5043711;28;19928;-81
2023/05/12 09:00:13;;;;;;;;;;;;;;;17.10;87.16;101646.34;5042068;28;20377;-81
2023/05/12 09:02:39;;;;;;;;;;;;;;;17.17;87.05;101652.38;5044584;28;19928;-80
2023/05/12 09:05:05;;;;;;;;;;;;;;;17.28;88.13;101655.50;5042180;28;20388;-80
2023/05/12 09:07:31;;;;;;;;;;;;;;;17.41;85.79;101653.28;5044698;28;19982;-81
2023/05/12 09:09:57;;;;;;;;;;;;;;;17.48;86.24;101659.25;5044418;28;19929;-80
2023/05/12 09:12:24;;;;;;;;;;;;;;;17.67;84.63;101659.44;5044447;28;20417;-80
2023/05/12 09:14:53;;;;;;;;;;;;;;;17.85;86.22;101653.38;5043822;28;20443;-81
2023/05/12 09:17:19;;;;;;;;;;;;;;;18.00;84.66;101654.59;5044571;28;19924;-81
2023/05/12 09:19:44;;;;;;;;;;;;;;;18.11;83.98;101657.72;5044275;28;19955;-81
2023/05/12 09:22:13;;;;;;;;;;;;;;;18.24;84.45;101650.03;5027626;28;19935;-81
2023/05/12 09:24:39;;;;;;;;;;;;;;;18.35;84.78;101650.50;5035994;28;20419;-81
2023/05/12 09:27:05;;;;;;;;;;;;;;;18.46;81.65;101650.03;5036616;28;19920;-81
2023/05/12 09:29:32;;;;;;;;;;;;;;;18.61;81.00;101652.06;5041731;28;20770;-81
2023/05/12 09:31:58;;;;;;;;;;;;;;;18.74;77.23;101652.41;5044214;28;20291;-82
2023/05/12 09:34:27;;;;;;;;;;;;;;;18.83;79.98;101644.00;5042112;28;21125;-81
2023/05/12 09:36:59;;;;;;;;;;;;;;;18.95;78.42;101641.72;5044263;28;19921;-82
2023/05/12 09:39:25;;;;;;;;;;;;;;;18.87;75.86;101645.63;5043606;28;20403;-82
2023/05/12 09:41:53;;;;;;;;;;;;;;;18.69;75.88;101649.94;5042347;28;19928;-81
2023/05/12 09:44:19;;;;;;;;;;;;;;;18.63;77.48;101663.59;5042334;28;19925;-82
2023/05/12 09:46:45;;;;;;;;;;;;;;;18.73;77.41;101660.53;5042250;28;20404;-81
2023/05/12 09:49:10;;;;;;;;;;;;;;;18.77;76.64;101656.78;5041308;28;20074;-80
2023/05/12 09:51:36;;;;;;;;;;;;;;;18.75;74.00;101658.66;5040541;28;19924;-82
2023/05/12 09:54:01;;;;;;;;;;;;;;;18.73;75.78;101661.41;5042088;28;19912;-81
2023/05/12 09:56:28;;;;;;;;;;;;;;;18.70;78.60;101658.84;5038615;28;20023;-80
2023/05/12 09:58:55;;;;;;;;;;;;;;;18.69;78.56;101662.47;5037055;28;19929;-81
2023/05/12 10:01:21;;;;;;;;;;;;;;;18.83;76.30;101667.28;5036744;28;20516;-81
2023/05/12 10:03:55;;;;;;;;;;;;;;;19.05;74.02;101667.22;5038314;28;20011;-81
2023/05/12 10:06:30;;;;;;;;;;;;;;;19.23;71.00;101668.19;5038090;28;19925;-81
2023/05/12 10:09:10;;;;;;;;;;;;;;;19.40;74.29;101662.06;5037303;28;19931;-80
2023/05/12 10:11:39;;;;;;;;;;;;;;;19.56;67.36;101679.25;5036793;28;20044;-80
2023/05/12 10:14:06;;;;;;;;;;;;;;;19.46;69.34;101677.88;5039786;28;19931;-81
2023/05/12 10:16:32;;;;;;;;;;;;;;;19.51;71.39;101675.88;5041271;28;20019;-80
2023/05/12 10:18:58;;;;;;;;;;;;;;;19.65;69.79;101673.41;5037863;28;20008;-81
2023/05/12 10:21:24;;;;;;;;;;;;;;;19.65;68.45;101676.09;5048886;28;19917;-80
2023/05/12 10:23:51;;;;;;;;;;;;;;;19.61;72.17;101668.25;5043146;28;20233;-80
2023/05/12 10:26:16;;;;;;;;;;;;;;;19.64;71.17;101673.50;5050847;28;19921;-79
2023/05/12 10:28:42;;;;;;;;;;;;;;;19.71;71.58;101680.38;5041382;28;20015;-80
2023/05/12 10:31:09;;;;;;;;;;;;;;;19.79;65.84;101672.81;5039815;28;19917;-82
2023/05/12 10:33:34;;;;;;;;;;;;;;;19.92;69.45;101675.78;5031595;28;19928;-81
2023/05/12 10:35:59;;;;;;;;;;;;;;;20.07;69.34;101671.50;5022300;28;19917;-80
2023/05/12 10:38:25;;;;;;;;;;;;;;;20.18;67.23;101678.09;5051529;28;20303;-80
2023/05/12 10:40:52;;;;;;;;;;;;;;;20.27;68.21;101681.28;5034261;28;19921;-80
2023/05/12 10:43:20;;;;;;;;;;;;;;;20.45;70.48;101684.84;5032535;28;19912;-80
2023/05/12 10:45:45;;;;;;;;;;;;;;;20.50;65.67;101678.31;5034250;28;20007;-81
2023/05/12 10:48:14;;;;;;;;;;;;;;;20.33;63.06;101689.06;5045554;28;19955;-80
2023/05/12 10:50:51;;;;;;;;;;;;;;;20.33;62.32;101686.38;5050945;28;20015;-80
2023/05/12 10:53:25;;;;;;;;;;;;;;;20.29;64.05;101688.31;5036092;28;20367;-80
2023/05/12 10:55:55;;;;;;;;;;;;;;;20.07;64.61;101693.00;5033520;28;19968;-80
2023/05/12 10:58:21;;;;;;;;;;;;;;;20.02;64.20;101703.09;5031095;28;19924;-80
2023/05/12 11:00:48;;;;;;;;;;;;;;;19.77;62.00;101689.00;5044003;28;20015;-81
2023/05/12 11:03:15;;;;;;;;;;;;;;;19.62;65.13;101695.06;5041300;28;20014;-82
2023/05/12 11:05:42;;;;;;;;;;;;;;;19.78;65.15;101695.25;5033103;28;19920;-79
2023/05/12 11:08:07;;;;;;;;;;;;;;;20.12;63.30;101697.19;5050570;28;20265;-80
2023/05/12 11:10:33;;;;;;;;;;;;;;;20.31;64.90;101697.19;5033503;28;19920;-79
2023/05/12 11:12:59;;;;;;;;;;;;;;;20.48;63.54;101701.75;5046185;28;20278;-80
2023/05/12 11:15:24;;;;;;;;;;;;;;;20.65;65.38;101702.72;5040795;28;19917;-79
2023/05/12 11:17:49;;;;;;;;;;;;;;;20.73;63.02;101706.78;5037912;28;19967;-79
2023/05/12 11:20:22;;;;;;;;;;;;;;;20.85;62.33;101702.59;5034866;28;19924;-80
2023/05/12 11:22:48;;;;;;;;;;;;;;;21.05;61.56;101693.50;5052189;28;19916;-80
2023/05/12 11:25:13;;;;;;;;;;;;;;;21.22;63.12;101714.16;5042303;28;20292;-80
2023/05/12 11:27:44;;;;;;;;;;;;;;;21.08;60.55;101709.47;5048503;28;20013;-80
2023/05/12 11:30:10;;;;;;;;;;;;;;;20.91;62.30;101706.78;5035848;28;19921;-80
2023/05/12 11:32:35;;;;;;;;;;;;;;;20.96;63.09;101712.81;5045286;28;19917;-80
2023/05/12 11:35:11;;;;;;;;;;;;;;;20.93;62.45;101713.84;5045848;28;19924;-79
2023/05/12 11:37:38;;;;;;;;;;;;;;;20.90;58.74;101714.00;5054557;28;19917;-79
2023/05/12 11:40:11;;;;;;;;;;;;;;;20.84;59.40;101719.69;5043552;28;19956;-80
2023/05/12 11:42:38;;;;;;;;;;;;;;;20.83;59.73;101721.50;5032040;28;19916;-80
2023/05/12 11:45:03;;;;;;;;;;;;;;;20.98;60.50;101719.84;5043184;28;19917;-80
2023/05/12 11:47:29;;;;;;;;;;;;;;;21.12;59.62;101721.84;5055180;28;19928;-80
2023/05/12 11:49:54;;;;;;;;;;;;;;;21.29;61.72;101722.75;5037279;28;19921;-80
2023/05/12 11:52:21;;;;;;;;;;;;;;;21.43;57.62;101733.72;5053193;28;19916;-80
2023/05/12 11:54:50;;;;;;;;;;;;;;;21.38;54.77;101728.53;5053661;28;19913;-79
2023/05/12 11:57:26;;;;;;;;;;;;;;;21.40;58.46;101739.28;5036299;28;19921;-79
2023/05/12 11:59:56;;;;;;;;;;;;;;;21.50;56.09;101731.59;5053999;28;19927;-84
2023/05/12 12:02:22;;;;;;;;;;;;;;;21.49;56.93;101722.63;5053902;28;19925;-80
2023/05/12 12:04:47;;;;;;;;;;;;;;;21.51;54.64;101741.41;5053888;28;20276;-82
2023/05/12 12:07:12;;;;;;;;;;;;;;;21.50;56.18;101745.91;5053807;28;19960;-80
2023/05/12 12:09:42;;;;;;;;;;;;;;;21.50;52.39;101748.63;5055045;28;19916;-81
2023/05/12 12:12:08;;;;;;;;;;;;;;;21.33;57.53;101741.38;5053823;28;19990;-81
2023/05/12 12:14:35;;;;;;;;;;;;;;;21.35;56.42;101742.19;5053673;28;19948;-80
2023/05/12 12:17:01;;;;;;;;;;;;;;;21.48;56.59;101739.72;5055039;28;19928;-81
2023/05/12 12:19:27;;;;;;;;;;;;;;;21.75;57.20;101748.16;5053338;28;20287;-81
2023/05/12 12:21:53;;;;;;;;;;;;;;;21.90;52.66;101739.22;5054752;28;20406;-80
2023/05/12 12:24:18;;;;;;;;;;;;;;;22.05;55.80;101750.13;5041974;28;19920;-80
2023/05/12 12:26:43;;;;;;;;;;;;;;;22.35;56.43;101747.53;5036378;28;19935;-77